Time;durP1;ratioP1;P1;durP2;ratioP2;P2;SDS_P1;SDS_P2;PMS_P1;PMS_P2;Temp;Humidity;BMP_temperature;BMP_pressure;BME280_temperature;BME280_humidity;BME280_pressure;Samples;Min_cycle;Max_cycle;Signal;HPM_P1;HPM_P2
2022/04/19 00:00:56;;;;;;;4.07;3.00;;;;;;;1.06;100.00;92724.69;2088570;28;20021;-79
2022/04/19 00:01:57;;;;;;;3.58;2.80;;;;;;;1.04;100.00;92731.44;2096929;28;20174;-78
2022/04/19 00:02:58;;;;;;;4.07;2.90;;;;;;;1.00;100.00;92731.41;2087885;28;20466;-80
2022/04/19 00:03:59;;;;;;;5.22;3.08;;;;;;;1.00;100.00;92726.13;2104522;28;20024;-78
2022/04/19 00:05:00;;;;;;;4.07;2.75;;;;;;;1.04;100.00;92726.94;2103962;28;20028;-81
2022/04/19 00:06:02;;;;;;;5.18;2.80;;;;;;;0.96;100.00;92720.09;2103282;28;20519;-80
2022/04/19 00:07:03;;;;;;;7.40;3.20;;;;;;;0.94;100.00;92722.34;2113516;27;20027;-80
2022/04/19 00:08:06;;;;;;;6.15;2.70;;;;;;;0.98;100.00;92720.50;2122339;27;20029;-80
2022/04/19 00:09:07;;;;;;;5.75;2.40;;;;;;;0.94;100.00;92723.09;2119655;27;20015;-79
2022/04/19 00:10:08;;;;;;;2.95;2.60;;;;;;;0.86;100.00;92707.63;2106133;28;20455;-79
2022/04/19 00:11:09;;;;;;;5.35;3.20;;;;;;;0.91;100.00;92715.19;2103609;28;20039;-79
2022/04/19 00:12:10;;;;;;;3.97;2.83;;;;;;;0.85;100.00;92719.28;2101948;28;20024;-80
2022/04/19 00:13:13;;;;;;;4.13;2.45;;;;;;;0.82;100.00;92720.75;2104401;28;20020;-80
2022/04/19 00:14:15;;;;;;;4.88;2.80;;;;;;;0.74;100.00;92714.66;2117865;27;20020;-79
2022/04/19 00:15:16;;;;;;;4.07;2.78;;;;;;;0.82;100.00;92706.84;2119617;27;20021;-80
2022/04/19 00:16:17;;;;;;;4.63;2.80;;;;;;;0.80;100.00;92711.72;2111901;28;20569;-79
2022/04/19 00:17:19;;;;;;;5.22;2.83;;;;;;;0.78;100.00;92717.31;2105128;28;20051;-80
2022/04/19 00:18:21;;;;;;;4.25;2.58;;;;;;;0.86;100.00;92711.00;2106685;27;20026;-79
2022/04/19 00:19:25;;;;;;;4.07;2.80;;;;;;;0.78;100.00;92706.81;2108513;28;20527;-81
2022/04/19 00:20:28;;;;;;;4.47;2.63;;;;;;;0.88;100.00;92708.00;2109113;28;20843;-81
2022/04/19 00:21:29;;;;;;;3.60;2.53;;;;;;;0.68;100.00;92705.59;2104605;28;20039;-82
2022/04/19 00:22:30;;;;;;;3.53;2.63;;;;;;;0.74;100.00;92706.78;2106289;28;20066;-82
2022/04/19 00:23:33;;;;;;;4.65;2.85;;;;;;;0.77;100.00;92709.81;2106206;28;20016;-82
2022/04/19 00:24:34;;;;;;;3.42;2.47;;;;;;;0.80;100.00;92703.81;2098378;28;20024;-81
2022/04/19 00:25:36;;;;;;;4.28;2.55;;;;;;;0.75;100.00;92704.91;2093207;28;20021;-80
2022/04/19 00:26:37;;;;;;;3.83;2.92;;;;;;;0.83;100.00;92703.09;2102644;28;20024;-81
2022/04/19 00:27:38;;;;;;;3.47;2.58;;;;;;;0.85;100.00;92704.25;2110439;28;20446;-81
2022/04/19 00:28:39;;;;;;;5.20;2.80;;;;;;;0.94;100.00;92701.28;2112862;28;20020;-79
2022/04/19 00:29:41;;;;;;;5.38;2.92;;;;;;;0.88;100.00;92708.00;2110539;28;20016;-80
2022/04/19 00:30:43;;;;;;;3.80;2.72;;;;;;;0.83;100.00;92706.47;2104278;28;20047;-80
2022/04/19 00:31:44;;;;;;;3.90;2.47;;;;;;;0.82;100.00;92707.59;2106545;28;20110;-82
2022/04/19 00:32:46;;;;;;;10.60;2.92;;;;;;;0.85;100.00;92703.50;2106696;28;20031;-81
2022/04/19 00:33:47;;;;;;;7.43;2.88;;;;;;;0.72;100.00;92700.38;2106671;28;20020;-79
2022/04/19 00:34:48;;;;;;;3.95;2.53;;;;;;;0.66;100.00;92704.44;2114918;28;20020;-81
2022/04/19 00:35:49;;;;;;;5.53;2.90;;;;;;;0.68;100.00;92702.22;2114940;28;20023;-82
2022/04/19 00:36:50;;;;;;;5.50;2.60;;;;;;;0.68;100.00;92699.59;2098050;28;20027;-79
2022/04/19 00:37:50;;;;;;;7.00;2.97;;;;;;;0.60;100.00;92698.00;2089129;28;20052;-80
2022/04/19 00:38:52;;;;;;;8.00;3.20;;;;;;;0.57;100.00;92699.50;2098324;28;20032;-81
2022/04/19 00:39:53;;;;;;;8.20;3.60;;;;;;;0.63;100.00;92692.78;2106431;28;20020;-79
2022/04/19 00:40:54;;;;;;;5.75;2.88;;;;;;;0.49;100.00;92701.31;2106339;28;20020;-81
2022/04/19 00:41:56;;;;;;;5.43;2.92;;;;;;;0.53;100.00;92696.09;2098139;28;20440;-81
2022/04/19 00:42:58;;;;;;;5.45;3.42;;;;;;;0.63;100.00;92698.06;2098974;28;20350;-81
2022/04/19 00:44:00;;;;;;;6.43;3.30;;;;;;;0.52;100.00;92694.56;2098153;28;20098;-82
2022/04/19 00:45:04;;;;;;;6.40;3.15;;;;;;;0.47;100.00;92697.53;2090054;28;20051;-82
2022/04/19 00:46:05;;;;;;;4.00;2.67;;;;;;;0.58;100.00;92702.88;2104806;27;20062;-80
2022/04/19 00:47:10;;;;;;;4.90;2.70;;;;;;;0.59;100.00;92696.50;2106392;28;20027;-81
2022/04/19 00:48:11;;;;;;;4.45;2.53;;;;;;;0.61;100.00;92694.25;2107051;28;20035;-84
2022/04/19 00:49:12;;;;;;;7.60;2.97;;;;;;;0.57;100.00;92699.50;2106470;28;20416;-80
2022/04/19 00:50:13;;;;;;;4.65;3.05;;;;;;;0.42;100.00;92695.97;2097229;28;20032;-80
2022/04/19 00:51:14;;;;;;;6.38;2.70;;;;;;;0.45;100.00;92695.25;2089793;28;20116;-80
2022/04/19 00:52:16;;;;;;;5.32;2.70;;;;;;;0.47;100.00;92695.66;2089240;28;20016;-82
2022/04/19 00:53:18;;;;;;;5.72;2.90;;;;;;;0.38;100.00;92689.19;2096854;28;20029;-82
2022/04/19 00:54:21;;;;;;;3.53;2.67;;;;;;;0.44;100.00;92692.97;2089982;28;20025;-81
2022/04/19 00:55:22;;;;;;;3.95;2.60;;;;;;;0.37;100.00;92687.66;2098746;28;20072;-81
2022/04/19 00:56:23;;;;;;;4.22;2.50;;;;;;;0.40;100.00;92684.31;2101200;28;20491;-81
2022/04/19 00:57:25;;;;;;;3.03;2.60;;;;;;;0.49;100.00;92682.91;2114772;28;20028;-80
2022/04/19 00:58:26;;;;;;;3.28;2.75;;;;;;;0.38;100.00;92683.91;2114684;28;20019;-80
2022/04/19 00:59:27;;;;;;;4.25;3.80;;;;;;;0.39;100.00;92685.44;2098051;28;20048;-78
2022/04/19 01:00:29;;;;;;;3.65;2.63;;;;;;;0.45;100.00;92686.63;2098098;28;20069;-79
2022/04/19 01:01:30;;;;;;;4.05;2.53;;;;;;;0.39;100.00;92688.06;2096469;28;20412;-82
2022/04/19 01:02:31;;;;;;;3.42;2.60;;;;;;;0.55;100.00;92678.06;2101195;28;20107;-82
2022/04/19 01:03:32;;;;;;;3.72;2.40;;;;;;;0.56;100.00;92681.44;2114761;28;20012;-81
2022/04/19 01:04:35;;;;;;;4.80;2.88;;;;;;;0.50;100.00;92678.41;2114801;28;20019;-80
2022/04/19 01:05:36;;;;;;;5.35;2.60;;;;;;;0.52;100.00;92675.41;2106393;28;20026;-80
2022/04/19 01:06:37;;;;;;;3.67;2.50;;;;;;;0.61;100.00;92681.88;2097983;28;20028;-79
2022/04/19 01:07:39;;;;;;;2.50;2.30;;;;;;;0.57;100.00;92669.81;2098021;28;20063;-81
2022/04/19 01:08:44;;;;;;;2.75;2.20;;;;;;;0.71;100.00;92675.19;2098080;28;20028;-80
2022/04/19 01:09:46;;;;;;;3.08;2.58;;;;;;;0.58;100.00;92666.06;2098899;28;20058;-81
2022/04/19 01:10:47;;;;;;;2.90;2.60;;;;;;;0.49;100.00;92672.38;2098001;28;20024;-82
2022/04/19 01:13:17;;;;;;;2.95;2.35;;;;;;;0.48;100.00;92672.72;2100350;28;20658;-78
2022/04/19 01:14:20;;;;;;;4.18;2.65;;;;;;;0.45;100.00;92670.84;2098307;28;20037;-80
2022/04/19 01:15:21;;;;;;;3.30;2.90;;;;;;;0.54;100.00;92675.81;2098186;28;20020;-79
2022/04/19 01:16:22;;;;;;;4.20;2.58;;;;;;;0.42;100.00;92669.69;2106476;28;20016;-79
2022/04/19 01:17:25;;;;;;;3.28;2.55;;;;;;;0.48;100.00;92667.47;2106157;28;20068;-79
2022/04/19 01:18:27;;;;;;;3.90;2.53;;;;;;;0.32;100.00;92664.34;2090074;28;20466;-80
2022/04/19 01:19:29;;;;;;;2.95;2.22;;;;;;;0.31;100.00;92670.69;2090013;28;20029;-81
2022/04/19 01:20:30;;;;;;;3.55;2.20;;;;;;;0.39;100.00;92664.41;2097678;28;20048;-82
2022/04/19 01:21:44;;;;;;;3.42;2.53;;;;;;;0.21;100.00;92664.22;2097607;28;20032;-82
2022/04/19 01:22:51;;;;;;;2.95;2.22;;;;;;;0.24;100.00;92666.16;2091353;28;20103;-80
2022/04/19 01:23:52;;;;;;;3.53;2.30;;;;;;;0.13;100.00;92662.66;2091150;28;20128;-83
2022/04/19 01:24:55;;;;;;;2.90;2.47;;;;;;;0.18;100.00;92663.09;2106085;28;20032;-79
2022/04/19 01:25:58;;;;;;;3.38;2.92;;;;;;;0.19;100.00;92661.22;2104957;28;20020;-79
2022/04/19 01:26:59;;;;;;;3.13;2.80;;;;;;;0.18;100.00;92659.72;2112484;28;20156;-79
2022/04/19 01:28:00;;;;;;;3.63;2.55;;;;;;;0.16;100.00;92667.94;2122331;27;20077;-80
2022/04/19 01:29:01;;;;;;;4.47;2.28;;;;;;;0.19;100.00;92661.97;2113814;28;20023;-80
2022/04/19 01:30:12;;;;;;;4.70;2.47;;;;;;;0.16;100.00;92661.94;2096953;28;20040;-78
2022/04/19 01:31:23;;;;;;;3.08;2.55;;;;;;;0.20;100.00;92660.09;2098448;28;20086;-80
2022/04/19 01:32:34;;;;;;;3.72;2.50;;;;;;;0.23;100.00;92659.38;2100392;28;20035;-80
2022/04/19 01:33:35;;;;;;;3.15;2.53;;;;;;;0.24;100.00;92658.25;2114318;28;20015;-81
2022/04/19 01:34:36;;;;;;;4.43;2.47;;;;;;;0.21;100.00;92658.97;2105931;28;20020;-81
2022/04/19 01:35:38;;;;;;;2.85;2.25;;;;;;;0.11;100.00;92659.63;2097746;28;20036;-79
2022/04/19 01:36:39;;;;;;;2.88;2.65;;;;;;;0.13;100.00;92658.19;2106120;28;20095;-78
2022/04/19 01:37:47;;;;;;;3.85;2.28;;;;;;;0.12;100.00;92654.00;2097210;28;20845;-79
2022/04/19 01:38:48;;;;;;;4.55;2.58;;;;;;;0.03;100.00;92658.81;2091421;28;20108;-79
2022/04/19 01:41:11;;;;;;;4.10;2.70;;;;;;;-0.03;100.00;92655.00;2117226;27;20032;-80
2022/04/19 01:42:13;;;;;;;2.75;2.25;;;;;;;-0.05;100.00;92657.97;2119743;27;20122;-82
2022/04/19 01:43:14;;;;;;;2.78;2.53;;;;;;;-0.05;100.00;92654.59;2104930;28;20035;-79
2022/04/19 01:44:16;;;;;;;4.47;2.50;;;;;;;-0.07;100.00;92654.22;2106097;28;20028;-81
2022/04/19 01:45:23;;;;;;;3.08;2.63;;;;;;;0.07;100.00;92653.59;2097766;28;20397;-79
2022/04/19 01:46:26;;;;;;;3.38;2.38;;;;;;;0.00;100.00;92643.78;2107573;27;20480;-79
2022/04/19 01:47:27;;;;;;;4.32;2.53;;;;;;;0.00;100.00;92651.66;2105690;28;20709;-81
2022/04/19 01:48:29;;;;;;;2.45;2.25;;;;;;;0.07;100.00;92650.97;2105134;28;20024;-79
2022/04/19 01:49:30;;;;;;;3.78;2.83;;;;;;;0.06;100.00;92639.69;2094429;28;20469;-81
2022/04/19 01:50:32;;;;;;;4.75;2.22;;;;;;;0.01;100.00;92649.78;2105861;28;20027;-81
2022/04/19 01:51:36;;;;;;;2.90;2.38;;;;;;;0.07;100.00;92646.47;2122610;27;20119;-80
2022/04/19 01:52:38;;;;;;;3.00;2.33;;;;;;;-0.04;100.00;92645.63;2097883;28;20024;-81
2022/04/19 01:53:40;;;;;;;3.53;2.63;;;;;;;-0.04;100.00;92643.75;2089501;28;20025;-81
2022/04/19 01:54:41;;;;;;;2.70;2.40;;;;;;;-0.09;100.00;92644.06;2097861;28;20032;-79
2022/04/19 01:55:42;;;;;;;6.03;2.60;;;;;;;-0.12;100.00;92644.78;2093189;28;20429;-78
2022/04/19 01:56:44;;;;;;;3.25;2.38;;;;;;;-0.10;100.00;92641.78;2086903;28;20127;-80
2022/04/19 01:57:49;;;;;;;2.95;2.38;;;;;;;-0.12;100.00;92650.03;2089542;28;20021;-79
2022/04/19 01:58:50;;;;;;;3.08;2.78;;;;;;;-0.13;100.00;92640.66;2099089;28;20046;-80
2022/04/19 01:59:51;;;;;;;4.30;2.78;;;;;;;-0.02;100.00;92640.75;2105813;28;20028;-81
2022/04/19 02:00:52;;;;;;;3.17;2.42;;;;;;;-0.03;100.00;92647.13;2088816;28;20052;-78
2022/04/19 02:01:53;;;;;;;3.50;2.38;;;;;;;-0.15;100.00;92645.50;2095888;28;20032;-80
2022/04/19 02:02:55;;;;;;;3.33;2.67;;;;;;;-0.12;100.00;92642.16;2105888;28;20039;-81
2022/04/19 02:03:56;;;;;;;4.43;2.55;;;;;;;-0.18;100.00;92640.94;2097100;28;20021;-82
2022/04/19 02:04:57;;;;;;;2.78;2.47;;;;;;;-0.17;100.00;92642.47;2093365;28;20381;-81
2022/04/19 02:06:07;;;;;;;2.92;2.35;;;;;;;-0.18;100.00;92640.94;2102275;28;20488;-81
2022/04/19 02:07:08;;;;;;;2.97;2.40;;;;;;;-0.25;100.00;92643.50;2103527;28;20468;-80
2022/04/19 02:08:09;;;;;;;2.85;2.40;;;;;;;-0.13;100.00;92645.91;2089147;28;20107;-80
2022/04/19 02:09:10;;;;;;;6.63;2.63;;;;;;;-0.18;100.00;92640.94;2100010;28;20022;-80
2022/04/19 02:10:13;;;;;;;3.53;2.17;;;;;;;-0.24;100.00;92636.38;2114366;28;20066;-82
2022/04/19 02:12:46;;;;;;;;;;;;;;;-0.29;100.00;92632.22;2148837;27;20105;-81
2022/04/19 02:13:47;;;;;;;2.83;2.50;;;;;;;-0.20;100.00;92630.06;2129344;27;19955;-82
2022/04/19 02:14:48;;;;;;;2.85;2.60;;;;;;;-0.23;100.00;92632.63;2121451;27;20030;-80
2022/04/19 02:15:49;;;;;;;3.00;2.50;;;;;;;-0.14;100.00;92635.75;2129923;27;20060;-80
2022/04/19 02:16:52;;;;;;;3.03;2.60;;;;;;;-0.21;100.00;92631.19;2114485;27;20023;-80
2022/04/19 02:17:53;;;;;;;4.25;2.90;;;;;;;-0.21;100.00;92640.94;2121732;28;20156;-79
2022/04/19 02:18:54;;;;;;;3.50;2.40;;;;;;;-0.27;100.00;92633.34;2104757;28;20046;-80
2022/04/19 02:20:00;;;;;;;3.20;2.35;;;;;;;-0.22;100.00;92632.31;2113326;27;20492;-80
2022/04/19 02:21:02;;;;;;;3.75;2.60;;;;;;;-0.31;100.00;92635.22;2119497;27;20523;-80
2022/04/19 02:22:09;;;;;;;4.55;2.38;;;;;;;-0.24;100.00;92634.50;2113297;27;20055;-79
2022/04/19 02:23:10;;;;;;;3.45;2.38;;;;;;;-0.16;100.00;92630.09;2114662;27;20031;-82
2022/04/19 02:24:11;;;;;;;3.03;2.28;;;;;;;-0.17;100.00;92625.97;2121491;27;20023;-80
2022/04/19 02:25:13;;;;;;;2.85;2.58;;;;;;;-0.25;100.00;92633.00;2130044;27;20037;-79
2022/04/19 02:26:16;;;;;;;3.63;2.45;;;;;;;-0.26;100.00;92631.50;2120492;27;20042;-82
2022/04/19 02:27:17;;;;;;;3.28;2.50;;;;;;;-0.15;100.00;92621.84;2113254;28;20020;-81
2022/04/19 02:28:20;;;;;;;4.20;2.55;;;;;;;-0.27;100.00;92624.72;2113227;28;20533;-79
2022/04/19 02:29:23;;;;;;;2.95;2.38;;;;;;;-0.33;100.00;92623.53;2109000;28;20023;-82
2022/04/19 02:30:24;;;;;;;2.80;2.50;;;;;;;-0.33;100.00;92628.78;2113741;27;20098;-81
2022/04/19 02:31:26;;;;;;;2.58;2.03;;;;;;;-0.22;100.00;92624.44;2121669;27;20019;-81
2022/04/19 02:32:27;;;;;;;3.53;2.42;;;;;;;-0.23;100.00;92625.50;2115431;28;20024;-81
2022/04/19 02:33:29;;;;;;;2.83;2.60;;;;;;;-0.33;100.00;92623.53;2104722;28;20024;-80
2022/04/19 02:34:29;;;;;;;2.72;2.42;;;;;;;-0.33;100.00;92616.41;2113170;28;20386;-81
2022/04/19 02:35:31;;;;;;;3.22;2.80;;;;;;;-0.37;100.00;92625.38;2105880;28;20031;-80
2022/04/19 02:36:32;;;;;;;2.95;2.40;;;;;;;-0.32;100.00;92625.81;2114873;27;20036;-82
2022/04/19 02:37:33;;;;;;;2.85;2.55;;;;;;;-0.45;100.00;92615.91;2138082;27;20465;-80
2022/04/19 02:38:36;;;;;;;3.80;2.53;;;;;;;-0.39;100.00;92622.34;2127814;27;20021;-82
2022/04/19 02:39:36;;;;;;;4.68;2.30;;;;;;;-0.36;100.00;92622.38;2113104;28;20055;-80
2022/04/19 02:40:38;;;;;;;3.13;2.45;;;;;;;-0.38;100.00;92614.13;2115337;27;20404;-80
2022/04/19 02:41:39;;;;;;;2.67;2.28;;;;;;;-0.36;100.00;92622.38;2121567;28;20083;-81
2022/04/19 02:42:39;;;;;;;4.22;2.70;;;;;;;-0.39;100.00;92619.72;2112920;28;20042;-80
2022/04/19 02:43:40;;;;;;;4.90;2.30;;;;;;;-0.42;100.00;92623.81;2113034;28;20777;-81
2022/04/19 02:44:41;;;;;;;6.03;2.50;;;;;;;-0.43;100.00;92613.69;2104558;28;20039;-79
2022/04/19 02:45:42;;;;;;;3.25;2.33;;;;;;;-0.43;100.00;92621.56;2121556;27;20114;-81
2022/04/19 02:46:56;;;;;;;2.40;2.20;;;;;;;-0.46;100.00;92615.16;2129866;27;20023;-80
2022/04/19 02:48:07;;;;;;;2.47;2.28;;;;;;;-0.45;100.00;92618.53;2123927;27;20027;-79
2022/04/19 02:49:08;;;;;;;6.90;2.63;;;;;;;-0.38;100.00;92610.75;2116562;27;20068;-79
2022/04/19 02:50:09;;;;;;;3.00;2.70;;;;;;;-0.40;100.00;92618.19;2107077;28;20027;-81
2022/04/19 02:51:10;;;;;;;4.13;2.50;;;;;;;-0.45;100.00;92615.91;2119892;27;20070;-82
2022/04/19 02:52:11;;;;;;;2.47;2.20;;;;;;;-0.42;100.00;92615.94;2129808;27;20027;-79
2022/04/19 02:53:13;;;;;;;2.67;2.45;;;;;;;-0.39;100.00;92615.22;2121245;27;20024;-80
2022/04/19 02:54:15;;;;;;;3.08;2.75;;;;;;;-0.37;100.00;92625.38;2113086;27;20035;-80
2022/04/19 02:55:15;;;;;;;3.25;2.50;;;;;;;-0.37;100.00;92618.25;2121418;27;20023;-82
2022/04/19 02:56:17;;;;;;;4.93;2.35;;;;;;;-0.49;100.00;92615.09;2113758;28;20031;-81
2022/04/19 02:57:18;;;;;;;2.45;2.25;;;;;;;-0.47;100.00;92611.03;2113044;27;20028;-78
2022/04/19 02:58:19;;;;;;;3.35;2.15;;;;;;;-0.39;100.00;92612.63;2121355;27;20023;-80
2022/04/19 02:59:20;;;;;;;3.90;2.30;;;;;;;-0.46;100.00;92609.91;2112825;28;20024;-81
2022/04/19 03:00:21;;;;;;;2.97;2.40;;;;;;;-0.42;100.00;92604.69;2112855;28;20093;-80
2022/04/19 03:01:22;;;;;;;3.25;2.05;;;;;;;-0.40;100.00;92607.69;2112201;28;20110;-82
2022/04/19 03:02:23;;;;;;;3.42;2.50;;;;;;;-0.41;100.00;92617.44;2112462;28;20028;-79
2022/04/19 03:03:24;;;;;;;3.08;2.35;;;;;;;-0.38;100.00;92613.38;2122352;27;20022;-80
2022/04/19 03:04:25;;;;;;;2.88;2.47;;;;;;;-0.47;100.00;92605.75;2138432;27;20092;-81
2022/04/19 03:05:26;;;;;;;2.78;2.33;;;;;;;-0.54;100.00;92606.44;2121865;27;20015;-80
2022/04/19 03:06:27;;;;;;;2.55;2.33;;;;;;;-0.55;100.00;92604.94;2111316;28;20023;-81
2022/04/19 03:07:34;;;;;;;3.45;2.50;;;;;;;-0.58;100.00;92600.38;2096076;28;20029;-81
2022/04/19 03:08:35;;;;;;;2.78;2.38;;;;;;;-0.54;100.00;92606.44;2097643;28;20024;-81
2022/04/19 03:09:36;;;;;;;5.95;2.42;;;;;;;-0.59;100.00;92606.00;2097940;28;20044;-81
2022/04/19 03:10:37;;;;;;;3.60;2.35;;;;;;;-0.59;100.00;92606.00;2112625;28;20023;-79
2022/04/19 03:11:38;;;;;;;3.00;2.35;;;;;;;-0.58;100.00;92607.50;2112623;27;20036;-81
2022/04/19 03:12:39;;;;;;;6.45;2.15;;;;;;;-0.64;100.00;92604.44;2112338;28;20055;-80
2022/04/19 03:13:40;;;;;;;2.92;2.40;;;;;;;-0.58;100.00;92602.25;2103671;28;20035;-79
2022/04/19 03:14:41;;;;;;;5.63;2.22;;;;;;;-0.56;100.00;92600.03;2112378;28;20019;-82
2022/04/19 03:15:42;;;;;;;3.50;2.13;;;;;;;-0.49;100.00;92592.22;2112770;28;20081;-81
2022/04/19 03:16:43;;;;;;;3.38;2.30;;;;;;;-0.53;100.00;92596.69;2121159;28;20080;-79
2022/04/19 03:17:44;;;;;;;3.17;2.67;;;;;;;-0.30;100.00;92596.56;2121098;28;20051;-79
2022/04/19 03:18:46;;;;;;;4.95;2.80;;;;;;;-0.41;100.00;92603.56;2112640;28;20384;-81
2022/04/19 03:19:46;;;;;;;5.43;2.80;;;;;;;-0.47;100.00;92603.13;2112856;27;20024;-81
2022/04/19 03:20:47;;;;;;;3.05;2.72;;;;;;;-0.55;100.00;92598.91;2112939;28;20024;-80
2022/04/19 03:21:48;;;;;;;3.40;2.50;;;;;;;-0.48;100.00;92595.59;2116270;27;20401;-81
2022/04/19 03:28:10;;;;;;;4.55;2.53;;;;;;;-0.63;100.00;92598.09;2125016;27;20034;-82
2022/04/19 03:29:11;;;;;;;3.53;2.25;;;;;;;-0.69;100.00;92596.91;2115398;28;20031;-80
2022/04/19 03:30:16;;;;;;;5.90;2.55;;;;;;;-0.75;100.00;92598.31;2098719;28;20055;-80
2022/04/19 03:31:17;;;;;;;3.47;2.33;;;;;;;-0.69;100.00;92596.13;2100059;28;20107;-81
2022/04/19 03:32:19;;;;;;;2.65;2.30;;;;;;;-0.60;100.00;92602.63;2115305;28;20027;-80
2022/04/19 03:33:20;;;;;;;2.65;2.38;;;;;;;-0.64;100.00;92599.19;2107027;28;20496;-80
2022/04/19 03:34:21;;;;;;;3.00;2.53;;;;;;;-0.68;100.00;92595.78;2106689;28;20035;-81
2022/04/19 03:35:22;;;;;;;3.58;2.22;;;;;;;-0.69;100.00;92596.91;2098603;28;20024;-81
2022/04/19 03:36:23;;;;;;;2.95;2.50;;;;;;;-0.80;100.00;92598.63;2098598;28;20564;-82
2022/04/19 03:37:24;;;;;;;2.78;1.90;;;;;;;-0.77;100.00;92590.81;2106588;28;20020;-81
2022/04/19 03:38:25;;;;;;;2.97;2.55;;;;;;;-0.73;100.00;92595.34;2098083;28;20047;-81
2022/04/19 03:39:26;;;;;;;4.97;2.35;;;;;;;-0.78;100.00;92594.53;2090233;28;20401;-82
2022/04/19 03:40:26;;;;;;;2.92;2.20;;;;;;;-0.69;100.00;92590.91;2098703;28;20027;-81
2022/04/19 03:41:27;;;;;;;3.05;2.20;;;;;;;-0.81;100.00;92594.50;2098538;28;20032;-81
2022/04/19 03:42:28;;;;;;;4.20;2.85;;;;;;;-0.85;100.00;92591.81;2099330;28;20012;-79
2022/04/19 03:43:32;;;;;;;4.15;2.53;;;;;;;-0.87;100.00;92594.06;2115107;28;20110;-81
2022/04/19 03:44:33;;;;;;;3.58;2.63;;;;;;;-0.82;100.00;92590.38;2115384;28;20080;-78
2022/04/19 03:45:34;;;;;;;3.85;2.53;;;;;;;-0.79;100.00;92593.03;2103626;28;20023;-79
2022/04/19 03:47:07;;;;;;;3.63;2.40;;;;;;;-0.76;100.00;92596.81;2098745;28;20032;-79
2022/04/19 03:47:56;;;;;;;4.63;2.70;;;;;;;-0.83;100.00;92592.25;2118121;27;20037;-78
2022/04/19 03:49:01;;;;;;;2.40;2.20;;;;;;;-0.76;100.00;92587.06;2106864;28;20380;-80
2022/04/19 03:50:03;;;;;;;3.35;2.67;;;;;;;-0.81;100.00;92590.00;2106418;28;20102;-79
2022/04/19 03:51:04;;;;;;;2.90;2.55;;;;;;;-0.77;100.00;92584.81;2098033;28;20040;-80
2022/04/19 03:52:07;;;;;;;3.00;2.40;;;;;;;-0.80;100.00;92591.50;2095277;28;20028;-79
2022/04/19 03:53:08;;;;;;;3.28;2.35;;;;;;;-0.78;100.00;92585.91;2102225;27;20024;-78
2022/04/19 03:54:09;;;;;;;5.00;2.63;;;;;;;-0.86;100.00;92586.94;2107435;28;20554;-78
2022/04/19 03:55:10;;;;;;;3.97;2.17;;;;;;;-0.80;100.00;92583.63;2112636;28;20026;-81
2022/04/19 03:56:11;;;;;;;3.53;2.65;;;;;;;-0.85;100.00;92588.44;2114985;28;20024;-81
2022/04/19 03:57:12;;;;;;;3.70;2.30;;;;;;;-0.87;100.00;92588.06;2115286;27;20024;-80
2022/04/19 03:58:13;;;;;;;2.60;2.40;;;;;;;-0.91;100.00;92574.16;2123889;27;20027;-78
2022/04/19 03:59:14;;;;;;;4.18;2.38;;;;;;;-0.89;100.00;92587.66;2123660;27;20027;-79
2022/04/19 04:00:15;;;;;;;4.28;2.08;;;;;;;-0.89;100.00;92580.53;2123396;27;20053;-80
2022/04/19 04:01:16;;;;;;;2.55;2.30;;;;;;;-0.89;100.00;92571.91;2114690;28;20015;-80
2022/04/19 04:02:17;;;;;;;2.33;2.05;;;;;;;-0.86;100.00;92574.56;2113941;28;20016;-78
2022/04/19 04:03:19;;;;;;;2.92;2.53;;;;;;;-0.82;100.00;92585.88;2114928;28;20113;-82
2022/04/19 04:04:21;;;;;;;2.97;2.35;;;;;;;-0.87;100.00;92580.19;2098199;28;20020;-80
2022/04/19 04:05:24;;;;;;;3.45;2.50;;;;;;;-0.91;100.00;92579.38;2112351;27;20020;-78
2022/04/19 04:06:25;;;;;;;3.25;2.25;;;;;;;-0.91;100.00;92584.63;2098665;28;20031;-80
2022/04/19 04:07:27;;;;;;;2.90;2.33;;;;;;;-0.95;100.00;92579.34;2090223;28;20453;-81
2022/04/19 04:08:28;;;;;;;4.70;2.53;;;;;;;-0.98;100.00;92576.66;2090352;28;20025;-79
2022/04/19 04:09:32;;;;;;;4.75;2.50;;;;;;;-0.91;100.00;92582.00;2098431;28;20043;-80
2022/04/19 04:10:33;;;;;;;3.53;2.35;;;;;;;-0.91;100.00;92582.00;2106633;28;20094;-81
2022/04/19 04:11:34;;;;;;;5.50;2.60;;;;;;;-0.81;100.00;92576.13;2098316;28;20020;-80
2022/04/19 04:12:35;;;;;;;3.85;2.47;;;;;;;-0.94;100.00;92574.84;2097953;28;20141;-81
2022/04/19 04:13:36;;;;;;;2.80;2.22;;;;;;;-0.93;100.00;92578.97;2091232;28;20489;-81
2022/04/19 04:14:38;;;;;;;3.47;2.88;;;;;;;-1.00;100.00;92576.28;2098107;28;20024;-80
2022/04/19 04:15:39;;;;;;;2.70;2.50;;;;;;;-0.99;100.00;92581.16;2098461;28;20021;-80
2022/04/19 04:16:40;;;;;;;2.92;2.60;;;;;;;-1.00;100.00;92578.91;2089966;28;20025;-80
2022/04/19 04:17:41;;;;;;;3.63;2.72;;;;;;;-1.04;100.00;92582.22;2098301;28;20115;-79
2022/04/19 04:18:42;;;;;;;3.53;2.50;;;;;;;-1.00;100.00;92577.03;2098321;28;20021;-81
2022/04/19 04:19:44;;;;;;;2.72;2.53;;;;;;;-0.97;100.00;92576.31;2098344;28;20024;-81
2022/04/19 04:20:45;;;;;;;3.95;2.75;;;;;;;-0.98;100.00;92576.66;2092237;28;20029;-82
2022/04/19 04:21:46;;;;;;;3.72;2.42;;;;;;;-0.95;100.00;92581.97;2095072;28;20662;-81
2022/04/19 04:22:47;;;;;;;5.18;2.38;;;;;;;-1.04;100.00;92576.97;2106690;28;20369;-81
2022/04/19 04:23:48;;;;;;;2.88;2.25;;;;;;;-1.04;100.00;92581.47;2114913;28;20027;-81
2022/04/19 04:24:49;;;;;;;2.53;2.33;;;;;;;-0.85;100.00;92577.94;2106585;28;20740;-81
2022/04/19 04:25:50;;;;;;;2.40;2.20;;;;;;;-0.91;100.00;92579.38;2114177;28;20060;-81
2022/04/19 04:26:51;;;;;;;2.60;2.03;;;;;;;-0.95;100.00;92578.59;2097130;28;20016;-80
2022/04/19 04:27:52;;;;;;;5.13;2.92;;;;;;;-0.94;100.00;92577.47;2106562;28;20024;-81
2022/04/19 04:28:53;;;;;;;3.40;2.40;;;;;;;-0.95;100.00;92578.59;2096431;28;20035;-82
2022/04/19 04:29:54;;;;;;;2.78;2.47;;;;;;;-0.92;100.00;92580.47;2102728;28;20028;-80
2022/04/19 04:30:55;;;;;;;3.35;2.40;;;;;;;-0.85;100.00;92583.19;2099489;28;20393;-80
2022/04/19 04:31:59;;;;;;;3.63;2.15;;;;;;;-0.87;100.00;92585.44;2092912;28;20024;-82
2022/04/19 04:33:00;;;;;;;2.72;2.30;;;;;;;-0.98;100.00;92580.03;2087953;28;20033;-80
2022/04/19 04:34:00;;;;;;;3.00;2.30;;;;;;;-0.98;100.00;92580.03;2094227;28;20405;-80
2022/04/19 04:35:02;;;;;;;2.63;2.38;;;;;;;-1.13;100.00;92586.97;2112466;28;20027;-80
2022/04/19 04:36:03;;;;;;;2.90;2.40;;;;;;;-1.03;100.00;92583.72;2104611;28;20077;-81
2022/04/19 04:37:04;;;;;;;3.03;2.45;;;;;;;-1.11;100.00;92584.00;2105157;28;20024;-81
2022/04/19 04:38:05;;;;;;;2.80;2.08;;;;;;;-1.11;100.00;92591.88;2110389;28;20084;-82
2022/04/19 04:39:06;;;;;;;6.18;2.45;;;;;;;-1.05;100.00;92590.47;2105085;28;20142;-82
2022/04/19 04:40:08;;;;;;;4.38;2.78;;;;;;;-1.13;100.00;92588.84;2096278;28;20359;-80
2022/04/19 04:41:09;;;;;;;2.55;2.35;;;;;;;-1.08;100.00;92586.66;2096623;28;20524;-80
2022/04/19 04:42:09;;;;;;;2.83;2.38;;;;;;;-1.04;100.00;92591.97;2104443;28;20021;-82
2022/04/19 04:43:10;;;;;;;2.65;2.42;;;;;;;-1.00;100.00;92582.28;2102181;28;20027;-79
2022/04/19 04:44:12;;;;;;;5.07;2.47;;;;;;;-0.98;100.00;92593.16;2091099;28;20513;-80
2022/04/19 04:45:13;;;;;;;2.80;2.30;;;;;;;-0.94;100.00;92587.97;2089380;28;20032;-79
2022/04/19 04:50:20;;;;;;;4.38;2.28;;;;;;;-1.04;100.00;92597.22;2115650;27;20028;-79
2022/04/19 04:51:21;;;;;;;3.55;2.33;;;;;;;-0.97;100.00;92586.03;2105085;28;20075;-80
2022/04/19 04:52:22;;;;;;;4.90;3.78;;;;;;;-1.02;100.00;92580.00;2096135;28;20637;-81
2022/04/19 04:53:23;;;;;;;2.60;2.40;;;;;;;-1.06;100.00;92584.44;2105490;28;20036;-78
2022/04/19 04:54:24;;;;;;;3.42;2.30;;;;;;;-0.99;100.00;92589.03;2105272;28;20033;-80
2022/04/19 04:55:25;;;;;;;3.83;2.35;;;;;;;-0.99;100.00;92583.78;2104935;28;20087;-80
2022/04/19 04:56:26;;;;;;;2.75;2.47;;;;;;;-0.98;100.00;92592.41;2104015;28;20024;-80
2022/04/19 04:57:27;;;;;;;2.50;2.30;;;;;;;-0.98;100.00;92587.91;2096928;28;20082;-80
2022/04/19 04:58:29;;;;;;;7.22;2.42;;;;;;;-0.96;100.00;92585.69;2095866;28;20481;-81
2022/04/19 04:59:31;;;;;;;4.95;2.30;;;;;;;-0.94;100.00;92585.34;2095699;28;20039;-79
2022/04/19 05:00:32;;;;;;;4.38;2.10;;;;;;;-0.95;100.00;92589.09;2096711;28;20481;-80
2022/04/19 05:01:39;;;;;;;4.30;2.83;;;;;;;-0.91;100.00;92589.88;2096116;28;20052;-80
2022/04/19 05:02:40;;;;;;;4.55;2.10;;;;;;;-0.88;100.00;92587.31;2112315;28;20019;-80
2022/04/19 05:03:41;;;;;;;2.95;2.53;;;;;;;-0.81;100.00;92590.00;2113265;28;20718;-81